sensor_id;sensor_type;location;lat;lon;timestamp;P1;durP1;ratioP1;P2;durP2;ratioP2
51174;SDS011;37240;50.104;20.010;2022-10-22T00:03:58;76.55;;;29.70;;
51174;SDS011;37240;50.104;20.010;2022-10-22T00:08:58;68.47;;;28.88;;
51174;SDS011;37240;50.104;20.010;2022-10-22T00:13:59;73.40;;;29.08;;
51174;SDS011;37240;50.104;20.010;2022-10-22T00:19:00;74.65;;;30.42;;
51174;SDS011;37240;50.104;20.010;2022-10-22T00:24:00;68.50;;;29.10;;
51174;SDS011;37240;50.104;20.010;2022-10-22T00:29:01;72.78;;;27.52;;
51174;SDS011;37240;50.104;20.010;2022-10-22T00:34:02;62.70;;;27.17;;
51174;SDS011;37240;50.104;20.010;2022-10-22T00:39:02;64.40;;;27.80;;
51174;SDS011;37240;50.104;20.010;2022-10-22T00:44:03;68.75;;;30.00;;
51174;SDS011;37240;50.104;20.010;2022-10-22T00:49:05;77.07;;;32.05;;
51174;SDS011;37240;50.104;20.010;2022-10-22T00:54:06;75.88;;;31.65;;
51174;SDS011;37240;50.104;20.010;2022-10-22T00:59:07;79.22;;;30.95;;
51174;SDS011;37240;50.104;20.010;2022-10-22T01:04:09;79.15;;;31.38;;
51174;SDS011;37240;50.104;20.010;2022-10-22T01:24:57;67.25;;;29.55;;
51174;SDS011;37240;50.104;20.010;2022-10-22T01:30:04;77.15;;;30.25;;
51174;SDS011;37240;50.104;20.010;2022-10-22T01:35:07;65.63;;;30.40;;
51174;SDS011;37240;50.104;20.010;2022-10-22T01:40:11;75.80;;;28.48;;
51174;SDS011;37240;50.104;20.010;2022-10-22T01:45:14;64.00;;;28.38;;
51174;SDS011;37240;50.104;20.010;2022-10-22T01:50:22;71.82;;;29.67;;
51174;SDS011;37240;50.104;20.010;2022-10-22T02:00:59;71.57;;;29.98;;
51174;SDS011;37240;50.104;20.010;2022-10-22T02:06:16;67.55;;;29.58;;
51174;SDS011;37240;50.104;20.010;2022-10-22T02:11:19;71.70;;;29.67;;
51174;SDS011;37240;50.104;20.010;2022-10-22T02:16:21;70.18;;;29.58;;
51174;SDS011;37240;50.104;20.010;2022-10-22T02:21:27;61.28;;;28.42;;
51174;SDS011;37240;50.104;20.010;2022-10-22T02:26:30;68.18;;;29.25;;
51174;SDS011;37240;50.104;20.010;2022-10-22T02:31:35;69.47;;;30.30;;
51174;SDS011;37240;50.104;20.010;2022-10-22T02:36:39;65.65;;;27.98;;
51174;SDS011;37240;50.104;20.010;2022-10-22T02:41:41;68.53;;;30.33;;
51174;SDS011;37240;50.104;20.010;2022-10-22T02:46:42;62.45;;;27.73;;
51174;SDS011;37240;50.104;20.010;2022-10-22T02:51:43;67.63;;;29.17;;
51174;SDS011;37240;50.104;20.010;2022-10-22T02:56:43;68.15;;;28.48;;
51174;SDS011;37240;50.104;20.010;2022-10-22T03:01:44;62.40;;;28.90;;
51174;SDS011;37240;50.104;20.010;2022-10-22T03:06:45;58.45;;;27.13;;
51174;SDS011;37240;50.104;20.010;2022-10-22T03:11:45;61.58;;;25.67;;
51174;SDS011;37240;50.104;20.010;2022-10-22T03:16:46;62.33;;;27.17;;
51174;SDS011;37240;50.104;20.010;2022-10-22T03:21:49;71.97;;;26.80;;
51174;SDS011;37240;50.104;20.010;2022-10-22T03:26:54;56.15;;;26.60;;
51174;SDS011;37240;50.104;20.010;2022-10-22T03:31:55;56.40;;;24.63;;
51174;SDS011;37240;50.104;20.010;2022-10-22T03:36:56;67.97;;;28.85;;
51174;SDS011;37240;50.104;20.010;2022-10-22T03:41:59;69.70;;;30.63;;
51174;SDS011;37240;50.104;20.010;2022-10-22T03:47:00;62.35;;;27.88;;
51174;SDS011;37240;50.104;20.010;2022-10-22T03:52:08;62.63;;;26.20;;
51174;SDS011;37240;50.104;20.010;2022-10-22T03:57:10;60.55;;;26.65;;
51174;SDS011;37240;50.104;20.010;2022-10-22T04:02:11;71.40;;;30.33;;
51174;SDS011;37240;50.104;20.010;2022-10-22T04:07:12;79.80;;;31.05;;
51174;SDS011;37240;50.104;20.010;2022-10-22T04:12:13;72.13;;;31.25;;
51174;SDS011;37240;50.104;20.010;2022-10-22T04:17:13;79.93;;;31.42;;
51174;SDS011;37240;50.104;20.010;2022-10-22T04:22:14;69.70;;;30.25;;
51174;SDS011;37240;50.104;20.010;2022-10-22T04:27:15;66.00;;;30.55;;
51174;SDS011;37240;50.104;20.010;2022-10-22T04:32:15;82.28;;;33.05;;
51174;SDS011;37240;50.104;20.010;2022-10-22T04:37:16;64.07;;;29.92;;
51174;SDS011;37240;50.104;20.010;2022-10-22T04:42:16;73.10;;;30.48;;
51174;SDS011;37240;50.104;20.010;2022-10-22T04:47:17;68.45;;;30.27;;
51174;SDS011;37240;50.104;20.010;2022-10-22T04:52:17;70.25;;;31.80;;
51174;SDS011;37240;50.104;20.010;2022-10-22T04:57:18;68.07;;;30.05;;
51174;SDS011;37240;50.104;20.010;2022-10-22T05:02:18;68.05;;;28.45;;
51174;SDS011;37240;50.104;20.010;2022-10-22T05:07:19;65.55;;;29.77;;
51174;SDS011;37240;50.104;20.010;2022-10-22T05:12:19;68.47;;;28.58;;
51174;SDS011;37240;50.104;20.010;2022-10-22T05:17:20;62.60;;;28.35;;
51174;SDS011;37240;50.104;20.010;2022-10-22T05:22:20;68.22;;;29.80;;
51174;SDS011;37240;50.104;20.010;2022-10-22T05:27:21;58.88;;;27.48;;
51174;SDS011;37240;50.104;20.010;2022-10-22T05:32:21;66.85;;;29.05;;
51174;SDS011;37240;50.104;20.010;2022-10-22T05:37:22;51.10;;;25.42;;
51174;SDS011;37240;50.104;20.010;2022-10-22T05:42:23;52.80;;;23.17;;
51174;SDS011;37240;50.104;20.010;2022-10-22T05:47:23;45.25;;;22.45;;
51174;SDS011;37240;50.104;20.010;2022-10-22T05:52:24;50.08;;;23.48;;
51174;SDS011;37240;50.104;20.010;2022-10-22T05:57:25;46.80;;;22.77;;
51174;SDS011;37240;50.104;20.010;2022-10-22T06:02:26;51.42;;;24.55;;
51174;SDS011;37240;50.104;20.010;2022-10-22T06:07:26;59.13;;;27.95;;
51174;SDS011;37240;50.104;20.010;2022-10-22T06:12:27;69.60;;;30.95;;
51174;SDS011;37240;50.104;20.010;2022-10-22T06:17:27;73.53;;;34.00;;
51174;SDS011;37240;50.104;20.010;2022-10-22T06:22:28;63.47;;;31.25;;
51174;SDS011;37240;50.104;20.010;2022-10-22T06:27:28;82.63;;;40.22;;
51174;SDS011;37240;50.104;20.010;2022-10-22T06:32:29;75.00;;;33.65;;
51174;SDS011;37240;50.104;20.010;2022-10-22T06:37:29;72.20;;;32.55;;
51174;SDS011;37240;50.104;20.010;2022-10-22T06:42:30;68.20;;;31.83;;
51174;SDS011;37240;50.104;20.010;2022-10-22T06:47:30;69.07;;;27.95;;
51174;SDS011;37240;50.104;20.010;2022-10-22T06:52:31;54.20;;;26.75;;
51174;SDS011;37240;50.104;20.010;2022-10-22T06:57:32;44.85;;;24.48;;
51174;SDS011;37240;50.104;20.010;2022-10-22T07:02:32;48.72;;;24.48;;
51174;SDS011;37240;50.104;20.010;2022-10-22T07:07:33;50.80;;;24.20;;
51174;SDS011;37240;50.104;20.010;2022-10-22T07:12:33;44.20;;;23.35;;
51174;SDS011;37240;50.104;20.010;2022-10-22T07:17:34;49.55;;;22.92;;
51174;SDS011;37240;50.104;20.010;2022-10-22T07:22:34;50.53;;;23.45;;
51174;SDS011;37240;50.104;20.010;2022-10-22T07:27:35;45.38;;;21.38;;
51174;SDS011;37240;50.104;20.010;2022-10-22T07:32:35;39.30;;;20.00;;
51174;SDS011;37240;50.104;20.010;2022-10-22T07:37:36;42.00;;;19.88;;
51174;SDS011;37240;50.104;20.010;2022-10-22T07:42:36;36.20;;;19.45;;
51174;SDS011;37240;50.104;20.010;2022-10-22T07:47:37;37.40;;;19.02;;
51174;SDS011;37240;50.104;20.010;2022-10-22T07:52:38;40.50;;;20.20;;
51174;SDS011;37240;50.104;20.010;2022-10-22T07:57:39;43.17;;;20.92;;
51174;SDS011;37240;50.104;20.010;2022-10-22T08:02:39;45.60;;;21.55;;
51174;SDS011;37240;50.104;20.010;2022-10-22T08:07:40;47.60;;;21.67;;
51174;SDS011;37240;50.104;20.010;2022-10-22T08:12:41;46.95;;;22.00;;
51174;SDS011;37240;50.104;20.010;2022-10-22T08:17:41;45.92;;;21.95;;
51174;SDS011;37240;50.104;20.010;2022-10-22T08:22:42;39.15;;;19.88;;
51174;SDS011;37240;50.104;20.010;2022-10-22T08:27:43;41.85;;;20.08;;
51174;SDS011;37240;50.104;20.010;2022-10-22T08:32:44;47.35;;;18.58;;
51174;SDS011;37240;50.104;20.010;2022-10-22T08:37:44;36.67;;;18.08;;
51174;SDS011;37240;50.104;20.010;2022-10-22T08:48:51;41.00;;;19.92;;
51174;SDS011;37240;50.104;20.010;2022-10-22T08:59:10;41.08;;;18.60;;
51174;SDS011;37240;50.104;20.010;2022-10-22T09:09:25;40.60;;;19.50;;
51174;SDS011;37240;50.104;20.010;2022-10-22T09:14:30;48.75;;;24.92;;
51174;SDS011;37240;50.104;20.010;2022-10-22T09:29:41;28.60;;;14.65;;
51174;SDS011;37240;50.104;20.010;2022-10-22T09:34:43;30.83;;;14.35;;
51174;SDS011;37240;50.104;20.010;2022-10-22T09:39:46;37.85;;;15.40;;
51174;SDS011;37240;50.104;20.010;2022-10-22T09:44:53;29.23;;;14.52;;
51174;SDS011;37240;50.104;20.010;2022-10-22T09:50:36;26.83;;;14.18;;
51174;SDS011;37240;50.104;20.010;2022-10-22T09:55:26;36.10;;;15.95;;
51174;SDS011;37240;50.104;20.010;2022-10-22T10:00:28;32.65;;;16.17;;
51174;SDS011;37240;50.104;20.010;2022-10-22T10:05:30;28.00;;;14.27;;
51174;SDS011;37240;50.104;20.010;2022-10-22T10:10:36;35.05;;;17.40;;
51174;SDS011;37240;50.104;20.010;2022-10-22T10:16:10;29.85;;;15.40;;
51174;SDS011;37240;50.104;20.010;2022-10-22T10:37:21;30.58;;;15.98;;
51174;SDS011;37240;50.104;20.010;2022-10-22T10:47:55;22.67;;;12.30;;
51174;SDS011;37240;50.104;20.010;2022-10-22T10:59:34;28.02;;;13.43;;
51174;SDS011;37240;50.104;20.010;2022-10-22T11:09:34;26.25;;;13.00;;
51174;SDS011;37240;50.104;20.010;2022-10-22T11:14:38;29.02;;;14.82;;
51174;SDS011;37240;50.104;20.010;2022-10-22T11:19:51;36.55;;;15.80;;
51174;SDS011;37240;50.104;20.010;2022-10-22T11:25:05;30.05;;;16.65;;
51174;SDS011;37240;50.104;20.010;2022-10-22T11:30:31;45.37;;;23.80;;
51174;SDS011;37240;50.104;20.010;2022-10-22T11:35:35;32.25;;;16.35;;
51174;SDS011;37240;50.104;20.010;2022-10-22T11:40:44;32.47;;;14.38;;
51174;SDS011;37240;50.104;20.010;2022-10-22T11:46:24;33.42;;;17.77;;
51174;SDS011;37240;50.104;20.010;2022-10-22T11:51:31;41.97;;;20.80;;
51174;SDS011;37240;50.104;20.010;2022-10-22T11:56:37;42.10;;;19.48;;
51174;SDS011;37240;50.104;20.010;2022-10-22T12:01:41;46.80;;;22.42;;
51174;SDS011;37240;50.104;20.010;2022-10-22T12:06:54;34.88;;;18.67;;
51174;SDS011;37240;50.104;20.010;2022-10-22T12:12:00;55.85;;;29.08;;
51174;SDS011;37240;50.104;20.010;2022-10-22T12:17:11;41.85;;;22.15;;
51174;SDS011;37240;50.104;20.010;2022-10-22T12:22:21;40.77;;;17.80;;
51174;SDS011;37240;50.104;20.010;2022-10-22T12:27:26;31.13;;;16.40;;
51174;SDS011;37240;50.104;20.010;2022-10-22T12:32:37;50.97;;;25.02;;
51174;SDS011;37240;50.104;20.010;2022-10-22T12:37:38;48.35;;;21.30;;
51174;SDS011;37240;50.104;20.010;2022-10-22T12:42:39;42.92;;;18.40;;
51174;SDS011;37240;50.104;20.010;2022-10-22T12:48:00;37.70;;;18.60;;
51174;SDS011;37240;50.104;20.010;2022-10-22T12:53:10;38.22;;;20.15;;
51174;SDS011;37240;50.104;20.010;2022-10-22T13:03:43;41.53;;;17.77;;
51174;SDS011;37240;50.104;20.010;2022-10-22T13:14:01;36.67;;;18.35;;
51174;SDS011;37240;50.104;20.010;2022-10-22T13:24:47;36.17;;;17.73;;
51174;SDS011;37240;50.104;20.010;2022-10-22T13:29:48;33.70;;;17.27;;
51174;SDS011;37240;50.104;20.010;2022-10-22T13:34:49;30.17;;;15.18;;
51174;SDS011;37240;50.104;20.010;2022-10-22T13:39:50;31.92;;;17.27;;
51174;SDS011;37240;50.104;20.010;2022-10-22T13:44:50;63.28;;;31.77;;
51174;SDS011;37240;50.104;20.010;2022-10-22T13:49:51;46.35;;;23.48;;
51174;SDS011;37240;50.104;20.010;2022-10-22T13:54:54;41.70;;;19.60;;
51174;SDS011;37240;50.104;20.010;2022-10-22T13:59:54;43.00;;;17.05;;
51174;SDS011;37240;50.104;20.010;2022-10-22T14:04:55;42.95;;;18.30;;
51174;SDS011;37240;50.104;20.010;2022-10-22T14:09:56;37.17;;;17.55;;
51174;SDS011;37240;50.104;20.010;2022-10-22T14:14:56;33.08;;;17.95;;
51174;SDS011;37240;50.104;20.010;2022-10-22T14:19:57;36.35;;;19.02;;
51174;SDS011;37240;50.104;20.010;2022-10-22T14:24:58;43.00;;;20.30;;
51174;SDS011;37240;50.104;20.010;2022-10-22T14:29:59;40.85;;;21.45;;
51174;SDS011;37240;50.104;20.010;2022-10-22T14:34:59;38.58;;;20.30;;
51174;SDS011;37240;50.104;20.010;2022-10-22T14:40:00;35.95;;;18.70;;
51174;SDS011;37240;50.104;20.010;2022-10-22T14:45:00;39.45;;;19.83;;
51174;SDS011;37240;50.104;20.010;2022-10-22T14:50:01;42.90;;;21.50;;
51174;SDS011;37240;50.104;20.010;2022-10-22T14:55:01;47.15;;;22.00;;
51174;SDS011;37240;50.104;20.010;2022-10-22T15:00:03;41.42;;;20.67;;
51174;SDS011;37240;50.104;20.010;2022-10-22T15:05:05;51.85;;;21.73;;
51174;SDS011;37240;50.104;20.010;2022-10-22T15:10:06;44.22;;;23.95;;
51174;SDS011;37240;50.104;20.010;2022-10-22T15:15:07;47.08;;;22.25;;
51174;SDS011;37240;50.104;20.010;2022-10-22T15:20:08;41.78;;;21.30;;
51174;SDS011;37240;50.104;20.010;2022-10-22T15:25:09;50.20;;;24.92;;
51174;SDS011;37240;50.104;20.010;2022-10-22T15:30:10;47.95;;;23.52;;
51174;SDS011;37240;50.104;20.010;2022-10-22T15:35:10;46.03;;;21.95;;
51174;SDS011;37240;50.104;20.010;2022-10-22T15:40:11;44.20;;;23.55;;
51174;SDS011;37240;50.104;20.010;2022-10-22T15:45:12;81.30;;;39.95;;
51174;SDS011;37240;50.104;20.010;2022-10-22T15:50:12;65.30;;;30.25;;
51174;SDS011;37240;50.104;20.010;2022-10-22T15:55:13;64.65;;;30.05;;
51174;SDS011;37240;50.104;20.010;2022-10-22T16:00:13;58.40;;;27.38;;
51174;SDS011;37240;50.104;20.010;2022-10-22T16:05:14;59.92;;;27.75;;
51174;SDS011;37240;50.104;20.010;2022-10-22T16:10:15;58.55;;;28.08;;
51174;SDS011;37240;50.104;20.010;2022-10-22T16:15:15;59.83;;;27.95;;
51174;SDS011;37240;50.104;20.010;2022-10-22T16:20:16;52.22;;;26.05;;
51174;SDS011;37240;50.104;20.010;2022-10-22T16:25:17;50.80;;;24.73;;
51174;SDS011;37240;50.104;20.010;2022-10-22T16:30:17;54.35;;;26.15;;
51174;SDS011;37240;50.104;20.010;2022-10-22T16:35:18;58.05;;;26.75;;
51174;SDS011;37240;50.104;20.010;2022-10-22T16:40:18;56.33;;;27.20;;
51174;SDS011;37240;50.104;20.010;2022-10-22T16:45:19;55.35;;;29.30;;
51174;SDS011;37240;50.104;20.010;2022-10-22T16:50:19;65.30;;;31.88;;
51174;SDS011;37240;50.104;20.010;2022-10-22T16:55:20;64.38;;;31.05;;
51174;SDS011;37240;50.104;20.010;2022-10-22T17:00:20;56.85;;;28.92;;
51174;SDS011;37240;50.104;20.010;2022-10-22T17:05:21;54.28;;;27.88;;
51174;SDS011;37240;50.104;20.010;2022-10-22T17:10:22;57.78;;;29.63;;
51174;SDS011;37240;50.104;20.010;2022-10-22T17:15:22;61.90;;;28.98;;
51174;SDS011;37240;50.104;20.010;2022-10-22T17:20:23;55.65;;;28.17;;
51174;SDS011;37240;50.104;20.010;2022-10-22T17:25:24;54.22;;;28.25;;
51174;SDS011;37240;50.104;20.010;2022-10-22T17:30:35;54.05;;;28.40;;
51174;SDS011;37240;50.104;20.010;2022-10-22T17:35:40;68.60;;;31.55;;
51174;SDS011;37240;50.104;20.010;2022-10-22T17:40:40;64.95;;;32.40;;
51174;SDS011;37240;50.104;20.010;2022-10-22T17:45:41;54.78;;;30.10;;
51174;SDS011;37240;50.104;20.010;2022-10-22T17:50:42;68.43;;;34.05;;
51174;SDS011;37240;50.104;20.010;2022-10-22T17:55:43;70.13;;;35.75;;
51174;SDS011;37240;50.104;20.010;2022-10-22T18:00:43;71.82;;;35.47;;
51174;SDS011;37240;50.104;20.010;2022-10-22T18:05:44;62.65;;;33.65;;
51174;SDS011;37240;50.104;20.010;2022-10-22T18:10:44;64.35;;;33.65;;
51174;SDS011;37240;50.104;20.010;2022-10-22T18:15:45;63.25;;;34.58;;
51174;SDS011;37240;50.104;20.010;2022-10-22T18:20:53;76.82;;;39.83;;
51174;SDS011;37240;50.104;20.010;2022-10-22T18:25:53;70.07;;;36.92;;
51174;SDS011;37240;50.104;20.010;2022-10-22T18:30:54;66.00;;;34.30;;
51174;SDS011;37240;50.104;20.010;2022-10-22T18:35:54;62.80;;;32.28;;
51174;SDS011;37240;50.104;20.010;2022-10-22T18:40:55;73.13;;;32.97;;
51174;SDS011;37240;50.104;20.010;2022-10-22T18:45:55;63.72;;;33.10;;
51174;SDS011;37240;50.104;20.010;2022-10-22T18:50:57;60.13;;;30.65;;
51174;SDS011;37240;50.104;20.010;2022-10-22T18:56:04;51.15;;;26.90;;
51174;SDS011;37240;50.104;20.010;2022-10-22T19:01:10;45.70;;;25.17;;
51174;SDS011;37240;50.104;20.010;2022-10-22T19:06:23;46.58;;;25.17;;
51174;SDS011;37240;50.104;20.010;2022-10-22T19:11:26;42.63;;;23.83;;
51174;SDS011;37240;50.104;20.010;2022-10-22T19:16:26;42.47;;;23.55;;
51174;SDS011;37240;50.104;20.010;2022-10-22T19:21:27;38.58;;;22.45;;
51174;SDS011;37240;50.104;20.010;2022-10-22T19:26:28;37.65;;;21.23;;
51174;SDS011;37240;50.104;20.010;2022-10-22T19:31:29;36.17;;;21.42;;
51174;SDS011;37240;50.104;20.010;2022-10-22T19:36:30;41.42;;;20.90;;
51174;SDS011;37240;50.104;20.010;2022-10-22T19:41:31;39.65;;;21.60;;
51174;SDS011;37240;50.104;20.010;2022-10-22T19:46:32;46.03;;;25.85;;
51174;SDS011;37240;50.104;20.010;2022-10-22T19:51:32;53.88;;;29.60;;
51174;SDS011;37240;50.104;20.010;2022-10-22T19:56:33;44.92;;;25.23;;
51174;SDS011;37240;50.104;20.010;2022-10-22T20:01:34;46.83;;;25.13;;
51174;SDS011;37240;50.104;20.010;2022-10-22T20:06:35;47.55;;;24.75;;
51174;SDS011;37240;50.104;20.010;2022-10-22T20:11:36;43.03;;;23.65;;
51174;SDS011;37240;50.104;20.010;2022-10-22T20:16:36;53.63;;;27.05;;
51174;SDS011;37240;50.104;20.010;2022-10-22T20:21:37;52.80;;;27.85;;
51174;SDS011;37240;50.104;20.010;2022-10-22T20:26:37;56.70;;;27.60;;
51174;SDS011;37240;50.104;20.010;2022-10-22T20:31:38;65.40;;;30.88;;
51174;SDS011;37240;50.104;20.010;2022-10-22T20:36:39;77.50;;;33.42;;
51174;SDS011;37240;50.104;20.010;2022-10-22T20:41:39;64.28;;;31.88;;
51174;SDS011;37240;50.104;20.010;2022-10-22T20:46:41;67.65;;;31.23;;
51174;SDS011;37240;50.104;20.010;2022-10-22T20:51:42;72.60;;;34.20;;
51174;SDS011;37240;50.104;20.010;2022-10-22T20:56:43;68.78;;;33.47;;
51174;SDS011;37240;50.104;20.010;2022-10-22T21:01:49;69.05;;;33.00;;
51174;SDS011;37240;50.104;20.010;2022-10-22T21:06:51;78.70;;;35.95;;
51174;SDS011;37240;50.104;20.010;2022-10-22T21:11:52;67.72;;;32.45;;
51174;SDS011;37240;50.104;20.010;2022-10-22T21:16:53;81.53;;;36.63;;
51174;SDS011;37240;50.104;20.010;2022-10-22T21:21:53;72.13;;;33.60;;
51174;SDS011;37240;50.104;20.010;2022-10-22T21:26:54;66.28;;;32.85;;
51174;SDS011;37240;50.104;20.010;2022-10-22T21:31:54;67.35;;;32.30;;
51174;SDS011;37240;50.104;20.010;2022-10-22T21:36:55;67.25;;;33.90;;
51174;SDS011;37240;50.104;20.010;2022-10-22T21:41:55;60.45;;;31.33;;
51174;SDS011;37240;50.104;20.010;2022-10-22T21:46:56;64.47;;;32.17;;
51174;SDS011;37240;50.104;20.010;2022-10-22T21:51:56;74.95;;;32.70;;
51174;SDS011;37240;50.104;20.010;2022-10-22T21:56:57;59.80;;;31.05;;
51174;SDS011;37240;50.104;20.010;2022-10-22T22:01:57;63.60;;;29.77;;
51174;SDS011;37240;50.104;20.010;2022-10-22T22:06:58;58.85;;;31.42;;
51174;SDS011;37240;50.104;20.010;2022-10-22T22:11:59;57.35;;;26.88;;
51174;SDS011;37240;50.104;20.010;2022-10-22T22:16:59;51.97;;;26.45;;
51174;SDS011;37240;50.104;20.010;2022-10-22T22:22:00;48.53;;;25.58;;
51174;SDS011;37240;50.104;20.010;2022-10-22T22:27:00;48.95;;;26.67;;
51174;SDS011;37240;50.104;20.010;2022-10-22T22:32:01;45.60;;;25.90;;
51174;SDS011;37240;50.104;20.010;2022-10-22T22:37:01;48.15;;;24.58;;
51174;SDS011;37240;50.104;20.010;2022-10-22T22:42:02;50.30;;;25.40;;
51174;SDS011;37240;50.104;20.010;2022-10-22T22:47:03;49.60;;;24.85;;
51174;SDS011;37240;50.104;20.010;2022-10-22T22:52:03;47.60;;;25.33;;
51174;SDS011;37240;50.104;20.010;2022-10-22T22:57:04;46.50;;;24.88;;
51174;SDS011;37240;50.104;20.010;2022-10-22T23:02:05;49.08;;;24.00;;
51174;SDS011;37240;50.104;20.010;2022-10-22T23:07:05;52.83;;;26.23;;
51174;SDS011;37240;50.104;20.010;2022-10-22T23:12:06;52.65;;;25.58;;
51174;SDS011;37240;50.104;20.010;2022-10-22T23:17:06;48.00;;;25.65;;
51174;SDS011;37240;50.104;20.010;2022-10-22T23:22:07;43.10;;;23.48;;
51174;SDS011;37240;50.104;20.010;2022-10-22T23:27:08;48.28;;;23.63;;
51174;SDS011;37240;50.104;20.010;2022-10-22T23:32:10;50.80;;;24.38;;
51174;SDS011;37240;50.104;20.010;2022-10-22T23:37:12;48.85;;;23.98;;
51174;SDS011;37240;50.104;20.010;2022-10-22T23:42:13;57.50;;;28.02;;
51174;SDS011;37240;50.104;20.010;2022-10-22T23:47:13;44.30;;;24.33;;
51174;SDS011;37240;50.104;20.010;2022-10-22T23:52:14;59.58;;;29.15;;
51174;SDS011;37240;50.104;20.010;2022-10-22T23:57:14;57.47;;;26.92;;
